sensor_id;sensor_type;location;lat;lon;timestamp;temperature;humidity
38241;DHT22;24037;49.536;8.500;2023-04-01T00:00:30;10.40;1.00
38241;DHT22;24037;49.536;8.500;2023-04-01T00:02:57;10.30;1.00
38241;DHT22;24037;49.536;8.500;2023-04-01T00:05:23;10.20;1.00
38241;DHT22;24037;49.536;8.500;2023-04-01T00:07:51;10.30;1.00
38241;DHT22;24037;49.536;8.500;2023-04-01T00:10:17;10.20;1.00
38241;DHT22;24037;49.536;8.500;2023-04-01T00:12:44;10.30;1.00
38241;DHT22;24037;49.536;8.500;2023-04-01T00:15:11;10.30;1.00
38241;DHT22;24037;49.536;8.500;2023-04-01T00:17:38;10.30;1.00
38241;DHT22;24037;49.536;8.500;2023-04-01T00:20:05;10.20;1.00
38241;DHT22;24037;49.536;8.500;2023-04-01T00:22:33;10.20;1.00
38241;DHT22;24037;49.536;8.500;2023-04-01T00:24:59;10.10;1.00
38241;DHT22;24037;49.536;8.500;2023-04-01T00:27:26;10.10;1.00
38241;DHT22;24037;49.536;8.500;2023-04-01T00:29:52;10.10;1.00
38241;DHT22;24037;49.536;8.500;2023-04-01T00:32:18;10.00;1.00
38241;DHT22;24037;49.536;8.500;2023-04-01T00:34:50;10.00;1.00
38241;DHT22;24037;49.536;8.500;2023-04-01T00:37:17;10.10;1.00
38241;DHT22;24037;49.536;8.500;2023-04-01T00:39:44;10.20;1.00
38241;DHT22;24037;49.536;8.500;2023-04-01T00:42:10;10.30;1.00
38241;DHT22;24037;49.536;8.500;2023-04-01T00:44:38;10.30;1.00
38241;DHT22;24037;49.536;8.500;2023-04-01T00:47:04;10.30;1.00
38241;DHT22;24037;49.536;8.500;2023-04-01T00:49:33;10.30;1.00
38241;DHT22;24037;49.536;8.500;2023-04-01T00:52:03;10.40;1.00
38241;DHT22;24037;49.536;8.500;2023-04-01T00:54:31;10.40;1.00
38241;DHT22;24037;49.536;8.500;2023-04-01T00:57:01;10.40;1.00
38241;DHT22;24037;49.536;8.500;2023-04-01T00:59:33;10.30;1.00
38241;DHT22;24037;49.536;8.500;2023-04-01T01:02:01;10.30;1.00
38241;DHT22;24037;49.536;8.500;2023-04-01T01:04:30;10.20;1.00
38241;DHT22;24037;49.536;8.500;2023-04-01T01:10:13;10.20;1.00
38241;DHT22;24037;49.536;8.500;2023-04-01T01:12:49;10.20;1.00
38241;DHT22;24037;49.536;8.500;2023-04-01T01:16:04;10.20;1.00
38241;DHT22;24037;49.536;8.500;2023-04-01T01:21:47;10.30;1.00
38241;DHT22;24037;49.536;8.500;2023-04-01T01:27:07;10.40;1.00
38241;DHT22;24037;49.536;8.500;2023-04-01T01:38:23;10.40;1.00
38241;DHT22;24037;49.536;8.500;2023-04-01T01:41:00;10.40;1.00
38241;DHT22;24037;49.536;8.500;2023-04-01T01:43:31;10.30;1.00
38241;DHT22;24037;49.536;8.500;2023-04-01T01:46:03;10.30;1.00
38241;DHT22;24037;49.536;8.500;2023-04-01T01:48:34;10.30;1.00
38241;DHT22;24037;49.536;8.500;2023-04-01T01:51:01;10.20;1.00
38241;DHT22;24037;49.536;8.500;2023-04-01T01:53:28;10.30;1.00
38241;DHT22;24037;49.536;8.500;2023-04-01T01:55:54;10.30;1.00
38241;DHT22;24037;49.536;8.500;2023-04-01T01:58:30;10.30;99.90
38241;DHT22;24037;49.536;8.500;2023-04-01T02:01:04;10.30;99.90
38241;DHT22;24037;49.536;8.500;2023-04-01T02:03:34;10.30;99.90
38241;DHT22;24037;49.536;8.500;2023-04-01T02:06:04;10.30;99.90
38241;DHT22;24037;49.536;8.500;2023-04-01T02:11:27;10.20;99.90
38241;DHT22;24037;49.536;8.500;2023-04-01T02:16:40;10.30;99.90
38241;DHT22;24037;49.536;8.500;2023-04-01T02:19:09;10.30;99.90
38241;DHT22;24037;49.536;8.500;2023-04-01T02:21:37;10.30;1.00
38241;DHT22;24037;49.536;8.500;2023-04-01T02:24:08;10.30;99.90
38241;DHT22;24037;49.536;8.500;2023-04-01T02:26:36;10.30;1.00
38241;DHT22;24037;49.536;8.500;2023-04-01T02:29:03;10.30;1.00
38241;DHT22;24037;49.536;8.500;2023-04-01T02:31:31;10.30;1.00
38241;DHT22;24037;49.536;8.500;2023-04-01T02:33:58;10.20;1.00
38241;DHT22;24037;49.536;8.500;2023-04-01T02:36:25;10.20;1.00
38241;DHT22;24037;49.536;8.500;2023-04-01T02:38:52;10.20;1.00
38241;DHT22;24037;49.536;8.500;2023-04-01T02:41:20;10.20;1.00
38241;DHT22;24037;49.536;8.500;2023-04-01T02:43:46;10.30;1.00
38241;DHT22;24037;49.536;8.500;2023-04-01T02:46:13;10.20;1.00
38241;DHT22;24037;49.536;8.500;2023-04-01T02:48:41;10.20;1.00
38241;DHT22;24037;49.536;8.500;2023-04-01T02:51:08;10.20;1.00
38241;DHT22;24037;49.536;8.500;2023-04-01T02:53:34;10.10;1.00
38241;DHT22;24037;49.536;8.500;2023-04-01T02:56:01;10.10;1.00
38241;DHT22;24037;49.536;8.500;2023-04-01T02:58:27;10.20;1.00
38241;DHT22;24037;49.536;8.500;2023-04-01T03:00:53;10.10;1.00
38241;DHT22;24037;49.536;8.500;2023-04-01T03:03:20;10.10;1.00
38241;DHT22;24037;49.536;8.500;2023-04-01T03:05:47;10.10;1.00
38241;DHT22;24037;49.536;8.500;2023-04-01T03:08:13;10.10;1.00
38241;DHT22;24037;49.536;8.500;2023-04-01T03:10:39;10.20;1.00
38241;DHT22;24037;49.536;8.500;2023-04-01T03:13:05;10.10;1.00
38241;DHT22;24037;49.536;8.500;2023-04-01T03:15:32;10.00;1.00
38241;DHT22;24037;49.536;8.500;2023-04-01T03:17:58;10.00;1.00
38241;DHT22;24037;49.536;8.500;2023-04-01T03:20:24;10.00;1.00
38241;DHT22;24037;49.536;8.500;2023-04-01T03:22:50;10.00;1.00
38241;DHT22;24037;49.536;8.500;2023-04-01T03:25:17;10.00;1.00
38241;DHT22;24037;49.536;8.500;2023-04-01T03:27:44;10.00;1.00
38241;DHT22;24037;49.536;8.500;2023-04-01T03:30:10;10.00;1.00
38241;DHT22;24037;49.536;8.500;2023-04-01T03:32:45;10.00;1.00
38241;DHT22;24037;49.536;8.500;2023-04-01T03:35:11;10.00;1.00
38241;DHT22;24037;49.536;8.500;2023-04-01T03:37:38;10.00;1.00
38241;DHT22;24037;49.536;8.500;2023-04-01T03:40:04;10.00;1.00
38241;DHT22;24037;49.536;8.500;2023-04-01T03:42:32;10.00;1.00
38241;DHT22;24037;49.536;8.500;2023-04-01T03:44:58;10.00;1.00
38241;DHT22;24037;49.536;8.500;2023-04-01T03:47:24;10.00;1.00
38241;DHT22;24037;49.536;8.500;2023-04-01T03:49:50;10.00;1.00
38241;DHT22;24037;49.536;8.500;2023-04-01T03:52:16;9.90;1.00
38241;DHT22;24037;49.536;8.500;2023-04-01T03:54:43;9.90;1.00
38241;DHT22;24037;49.536;8.500;2023-04-01T03:57:09;9.90;1.00
38241;DHT22;24037;49.536;8.500;2023-04-01T03:59:36;9.90;1.00
38241;DHT22;24037;49.536;8.500;2023-04-01T04:02:02;9.80;1.00
38241;DHT22;24037;49.536;8.500;2023-04-01T04:04:29;9.90;1.00
38241;DHT22;24037;49.536;8.500;2023-04-01T04:06:56;9.90;1.00
38241;DHT22;24037;49.536;8.500;2023-04-01T04:09:23;9.90;1.00
38241;DHT22;24037;49.536;8.500;2023-04-01T04:11:49;9.90;1.00
38241;DHT22;24037;49.536;8.500;2023-04-01T04:14:16;9.90;1.00
38241;DHT22;24037;49.536;8.500;2023-04-01T04:16:42;9.90;1.00
38241;DHT22;24037;49.536;8.500;2023-04-01T04:19:09;10.00;1.00
38241;DHT22;24037;49.536;8.500;2023-04-01T04:21:35;10.00;1.00
38241;DHT22;24037;49.536;8.500;2023-04-01T04:24:02;9.90;1.00
38241;DHT22;24037;49.536;8.500;2023-04-01T04:26:38;10.00;1.00
38241;DHT22;24037;49.536;8.500;2023-04-01T04:29:04;10.00;1.00
38241;DHT22;24037;49.536;8.500;2023-04-01T04:31:31;10.00;1.00
38241;DHT22;24037;49.536;8.500;2023-04-01T04:34:00;10.00;1.00
38241;DHT22;24037;49.536;8.500;2023-04-01T04:36:27;10.00;1.00
38241;DHT22;24037;49.536;8.500;2023-04-01T04:38:54;10.10;1.00
38241;DHT22;24037;49.536;8.500;2023-04-01T04:41:20;10.00;1.00
38241;DHT22;24037;49.536;8.500;2023-04-01T04:43:56;10.10;1.00
38241;DHT22;24037;49.536;8.500;2023-04-01T04:46:25;10.10;1.00
38241;DHT22;24037;49.536;8.500;2023-04-01T04:48:57;10.10;1.00
38241;DHT22;24037;49.536;8.500;2023-04-01T04:51:24;10.10;1.00
38241;DHT22;24037;49.536;8.500;2023-04-01T04:53:50;10.10;1.00
38241;DHT22;24037;49.536;8.500;2023-04-01T04:56:21;10.10;1.00
38241;DHT22;24037;49.536;8.500;2023-04-01T04:58:56;10.10;1.00
38241;DHT22;24037;49.536;8.500;2023-04-01T05:01:27;10.10;1.00
38241;DHT22;24037;49.536;8.500;2023-04-01T05:03:53;10.10;1.00
38241;DHT22;24037;49.536;8.500;2023-04-01T05:06:20;10.10;1.00
38241;DHT22;24037;49.536;8.500;2023-04-01T05:08:46;10.00;1.00
38241;DHT22;24037;49.536;8.500;2023-04-01T05:11:16;10.00;1.00
38241;DHT22;24037;49.536;8.500;2023-04-01T05:13:43;9.90;1.00
38241;DHT22;24037;49.536;8.500;2023-04-01T05:16:11;9.90;1.00
38241;DHT22;24037;49.536;8.500;2023-04-01T05:18:38;9.90;1.00
38241;DHT22;24037;49.536;8.500;2023-04-01T05:21:07;9.80;1.00
38241;DHT22;24037;49.536;8.500;2023-04-01T05:23:34;9.80;1.00
38241;DHT22;24037;49.536;8.500;2023-04-01T05:26:11;9.80;1.00
38241;DHT22;24037;49.536;8.500;2023-04-01T05:28:38;9.80;1.00
38241;DHT22;24037;49.536;8.500;2023-04-01T05:31:05;9.80;1.00
38241;DHT22;24037;49.536;8.500;2023-04-01T05:33:37;9.80;1.00
38241;DHT22;24037;49.536;8.500;2023-04-01T05:36:15;9.80;1.00
38241;DHT22;24037;49.536;8.500;2023-04-01T05:38:42;9.80;1.00
38241;DHT22;24037;49.536;8.500;2023-04-01T05:41:12;9.80;1.00
38241;DHT22;24037;49.536;8.500;2023-04-01T05:43:42;9.80;1.00
38241;DHT22;24037;49.536;8.500;2023-04-01T05:46:31;9.80;1.00
38241;DHT22;24037;49.536;8.500;2023-04-01T05:49:30;9.90;1.00
38241;DHT22;24037;49.536;8.500;2023-04-01T05:51:57;9.90;1.00
38241;DHT22;24037;49.536;8.500;2023-04-01T05:54:23;9.90;1.00
38241;DHT22;24037;49.536;8.500;2023-04-01T05:56:49;10.00;1.00
38241;DHT22;24037;49.536;8.500;2023-04-01T05:59:17;10.00;1.00
38241;DHT22;24037;49.536;8.500;2023-04-01T06:01:43;10.00;1.00
38241;DHT22;24037;49.536;8.500;2023-04-01T06:04:15;10.10;1.00
38241;DHT22;24037;49.536;8.500;2023-04-01T06:06:42;10.00;1.00
38241;DHT22;24037;49.536;8.500;2023-04-01T06:09:16;10.00;1.00
38241;DHT22;24037;49.536;8.500;2023-04-01T06:26:12;10.00;1.00
38241;DHT22;24037;49.536;8.500;2023-04-01T06:34:54;10.00;1.00
38241;DHT22;24037;49.536;8.500;2023-04-01T06:46:16;10.00;1.00
38241;DHT22;24037;49.536;8.500;2023-04-01T07:00:57;10.00;1.00
38241;DHT22;24037;49.536;8.500;2023-04-01T07:03:34;10.10;1.00
38241;DHT22;24037;49.536;8.500;2023-04-01T07:06:05;10.10;1.00
38241;DHT22;24037;49.536;8.500;2023-04-01T07:08:39;10.20;1.00
38241;DHT22;24037;49.536;8.500;2023-04-01T07:11:10;10.20;1.00
38241;DHT22;24037;49.536;8.500;2023-04-01T07:17:05;10.20;1.00
38241;DHT22;24037;49.536;8.500;2023-04-01T07:19:39;10.30;1.00
38241;DHT22;24037;49.536;8.500;2023-04-01T07:25:12;10.30;1.00
38241;DHT22;24037;49.536;8.500;2023-04-01T07:27:38;10.30;1.00
38241;DHT22;24037;49.536;8.500;2023-04-01T07:30:14;10.30;1.00
38241;DHT22;24037;49.536;8.500;2023-04-01T07:32:47;10.30;1.00
38241;DHT22;24037;49.536;8.500;2023-04-01T07:35:38;10.30;1.00
38241;DHT22;24037;49.536;8.500;2023-04-01T07:38:15;10.30;1.00
38241;DHT22;24037;49.536;8.500;2023-04-01T07:43:44;10.30;1.00
38241;DHT22;24037;49.536;8.500;2023-04-01T07:47:04;10.30;1.00
38241;DHT22;24037;49.536;8.500;2023-04-01T07:55:03;10.30;1.00
38241;DHT22;24037;49.536;8.500;2023-04-01T08:00:42;10.30;1.00
38241;DHT22;24037;49.536;8.500;2023-04-01T08:11:56;10.40;1.00
38241;DHT22;24037;49.536;8.500;2023-04-01T08:26:02;10.50;1.00
38241;DHT22;24037;49.536;8.500;2023-04-01T08:28:45;10.50;1.00
38241;DHT22;24037;49.536;8.500;2023-04-01T08:31:56;10.50;1.00
38241;DHT22;24037;49.536;8.500;2023-04-01T08:34:28;10.50;1.00
38241;DHT22;24037;49.536;8.500;2023-04-01T08:37:15;10.50;1.00
38241;DHT22;24037;49.536;8.500;2023-04-01T08:39:48;10.60;1.00
38241;DHT22;24037;49.536;8.500;2023-04-01T08:42:40;10.60;1.00
38241;DHT22;24037;49.536;8.500;2023-04-01T08:45:34;10.70;1.00
38241;DHT22;24037;49.536;8.500;2023-04-01T08:48:35;10.70;1.00
38241;DHT22;24037;49.536;8.500;2023-04-01T08:51:14;10.80;1.00
38241;DHT22;24037;49.536;8.500;2023-04-01T08:54:05;10.90;1.00
38241;DHT22;24037;49.536;8.500;2023-04-01T08:59:38;10.90;1.00
38241;DHT22;24037;49.536;8.500;2023-04-01T09:02:57;11.00;1.00
38241;DHT22;24037;49.536;8.500;2023-04-01T09:17:27;10.80;1.00
38241;DHT22;24037;49.536;8.500;2023-04-01T09:20:30;10.90;1.00
38241;DHT22;24037;49.536;8.500;2023-04-01T09:26:13;10.80;1.00
38241;DHT22;24037;49.536;8.500;2023-04-01T09:31:26;10.60;1.00
38241;DHT22;24037;49.536;8.500;2023-04-01T09:37:18;10.50;1.00
38241;DHT22;24037;49.536;8.500;2023-04-01T09:48:21;10.80;1.00
38241;DHT22;24037;49.536;8.500;2023-04-01T09:51:37;10.80;1.00
38241;DHT22;24037;49.536;8.500;2023-04-01T10:11:52;11.20;1.00
38241;DHT22;24037;49.536;8.500;2023-04-01T10:14:37;11.20;1.00
38241;DHT22;24037;49.536;8.500;2023-04-01T10:23:09;11.40;1.00
38241;DHT22;24037;49.536;8.500;2023-04-01T10:33:00;11.60;1.00
38241;DHT22;24037;49.536;8.500;2023-04-01T10:35:28;11.60;1.00
38241;DHT22;24037;49.536;8.500;2023-04-01T10:38:23;11.60;1.00
38241;DHT22;24037;49.536;8.500;2023-04-01T10:56:59;11.80;1.00
38241;DHT22;24037;49.536;8.500;2023-04-01T11:06:30;11.70;1.00
38241;DHT22;24037;49.536;8.500;2023-04-01T11:11:55;11.70;1.00
38241;DHT22;24037;49.536;8.500;2023-04-01T11:31:25;11.90;1.00
38241;DHT22;24037;49.536;8.500;2023-04-01T11:39:21;11.80;1.00
38241;DHT22;24037;49.536;8.500;2023-04-01T11:42:20;11.90;1.00
38241;DHT22;24037;49.536;8.500;2023-04-01T11:45:40;11.90;1.00
38241;DHT22;24037;49.536;8.500;2023-04-01T11:57:42;11.80;1.00
38241;DHT22;24037;49.536;8.500;2023-04-01T12:05:58;11.90;1.00
38241;DHT22;24037;49.536;8.500;2023-04-01T12:13:43;11.90;1.00
38241;DHT22;24037;49.536;8.500;2023-04-01T12:22:28;12.00;1.00
38241;DHT22;24037;49.536;8.500;2023-04-01T12:30:59;12.00;99.90
38241;DHT22;24037;49.536;8.500;2023-04-01T12:33:31;12.00;99.90
38241;DHT22;24037;49.536;8.500;2023-04-01T12:39:11;12.00;99.90
38241;DHT22;24037;49.536;8.500;2023-04-01T12:50:10;12.40;99.90
38241;DHT22;24037;49.536;8.500;2023-04-01T12:53:06;12.60;99.90
38241;DHT22;24037;49.536;8.500;2023-04-01T12:55:42;12.90;99.90
38241;DHT22;24037;49.536;8.500;2023-04-01T13:00:58;12.90;99.90
38241;DHT22;24037;49.536;8.500;2023-04-01T13:03:53;12.80;99.90
38241;DHT22;24037;49.536;8.500;2023-04-01T13:17:19;12.40;99.90
38241;DHT22;24037;49.536;8.500;2023-04-01T13:20:12;12.40;99.90
38241;DHT22;24037;49.536;8.500;2023-04-01T13:25:36;12.20;99.90
38241;DHT22;24037;49.536;8.500;2023-04-01T13:28:24;12.20;99.90
38241;DHT22;24037;49.536;8.500;2023-04-01T14:01:06;12.20;99.90
38241;DHT22;24037;49.536;8.500;2023-04-01T14:06:40;12.20;99.90
38241;DHT22;24037;49.536;8.500;2023-04-01T14:20:39;12.00;99.90
38241;DHT22;24037;49.536;8.500;2023-04-01T14:23:40;12.00;1.00
38241;DHT22;24037;49.536;8.500;2023-04-01T14:35:25;12.00;1.00
38241;DHT22;24037;49.536;8.500;2023-04-01T14:38:02;12.00;1.00
38241;DHT22;24037;49.536;8.500;2023-04-01T14:48:49;12.10;99.90
38241;DHT22;24037;49.536;8.500;2023-04-01T14:57:04;12.10;99.90
38241;DHT22;24037;49.536;8.500;2023-04-01T14:59:31;12.10;99.90
38241;DHT22;24037;49.536;8.500;2023-04-01T15:10:32;12.10;99.90
38241;DHT22;24037;49.536;8.500;2023-04-01T15:24:24;12.00;99.90
38241;DHT22;24037;49.536;8.500;2023-04-01T15:29:55;12.00;99.90
38241;DHT22;24037;49.536;8.500;2023-04-01T15:45:58;12.00;99.90
38241;DHT22;24037;49.536;8.500;2023-04-01T15:54:38;11.90;99.90
38241;DHT22;24037;49.536;8.500;2023-04-01T16:02:32;12.00;99.90
38241;DHT22;24037;49.536;8.500;2023-04-01T16:05:20;11.90;99.90
38241;DHT22;24037;49.536;8.500;2023-04-01T16:07:54;11.90;99.90
38241;DHT22;24037;49.536;8.500;2023-04-01T16:13:37;11.90;99.90
38241;DHT22;24037;49.536;8.500;2023-04-01T16:18:59;11.90;99.90
38241;DHT22;24037;49.536;8.500;2023-04-01T16:21:38;11.90;99.90
38241;DHT22;24037;49.536;8.500;2023-04-01T16:24:39;12.00;99.90
38241;DHT22;24037;49.536;8.500;2023-04-01T16:30:00;12.10;99.90
38241;DHT22;24037;49.536;8.500;2023-04-01T16:32:41;12.10;99.90
38241;DHT22;24037;49.536;8.500;2023-04-01T16:35:40;12.00;99.90
38241;DHT22;24037;49.536;8.500;2023-04-01T16:38:22;11.90;99.90
38241;DHT22;24037;49.536;8.500;2023-04-01T16:51:52;11.70;99.90
38241;DHT22;24037;49.536;8.500;2023-04-01T17:04:47;11.60;99.90
38241;DHT22;24037;49.536;8.500;2023-04-01T17:20:36;11.60;99.90
38241;DHT22;24037;49.536;8.500;2023-04-01T17:23:22;11.60;99.90
38241;DHT22;24037;49.536;8.500;2023-04-01T17:26:06;11.60;99.90
38241;DHT22;24037;49.536;8.500;2023-04-01T17:36:36;11.50;99.90
38241;DHT22;24037;49.536;8.500;2023-04-01T17:44:38;11.40;99.90
38241;DHT22;24037;49.536;8.500;2023-04-01T17:50:23;11.40;99.90
38241;DHT22;24037;49.536;8.500;2023-04-01T17:53:17;11.40;99.90
38241;DHT22;24037;49.536;8.500;2023-04-01T18:17:38;11.10;99.90
38241;DHT22;24037;49.536;8.500;2023-04-01T18:23:02;11.10;99.90
38241;DHT22;24037;49.536;8.500;2023-04-01T18:25:41;11.10;99.90
38241;DHT22;24037;49.536;8.500;2023-04-01T18:28:17;11.10;99.90
38241;DHT22;24037;49.536;8.500;2023-04-01T18:34:17;11.10;99.90
38241;DHT22;24037;49.536;8.500;2023-04-01T18:39:07;10.90;99.90
38241;DHT22;24037;49.536;8.500;2023-04-01T18:44:38;10.90;99.90
38241;DHT22;24037;49.536;8.500;2023-04-01T18:47:16;10.90;99.90
38241;DHT22;24037;49.536;8.500;2023-04-01T18:52:43;10.80;99.90
38241;DHT22;24037;49.536;8.500;2023-04-01T18:55:42;10.80;99.90
38241;DHT22;24037;49.536;8.500;2023-04-01T18:58:37;10.80;99.90
38241;DHT22;24037;49.536;8.500;2023-04-01T19:01:39;10.80;99.90
38241;DHT22;24037;49.536;8.500;2023-04-01T19:04:26;10.80;99.90
38241;DHT22;24037;49.536;8.500;2023-04-01T19:06:59;10.70;99.90
38241;DHT22;24037;49.536;8.500;2023-04-01T19:09:32;10.70;99.90
38241;DHT22;24037;49.536;8.500;2023-04-01T19:12:17;10.70;99.90
38241;DHT22;24037;49.536;8.500;2023-04-01T19:15:08;10.70;99.90
38241;DHT22;24037;49.536;8.500;2023-04-01T19:18:07;10.70;1.00
38241;DHT22;24037;49.536;8.500;2023-04-01T19:26:22;10.60;1.00
38241;DHT22;24037;49.536;8.500;2023-04-01T19:31:50;10.60;1.00
38241;DHT22;24037;49.536;8.500;2023-04-01T19:34:37;10.60;1.00
38241;DHT22;24037;49.536;8.500;2023-04-01T19:40:14;10.50;1.00
38241;DHT22;24037;49.536;8.500;2023-04-01T19:42:54;10.50;1.00
38241;DHT22;24037;49.536;8.500;2023-04-01T19:45:44;10.50;1.00
38241;DHT22;24037;49.536;8.500;2023-04-01T19:51:30;10.30;1.00
38241;DHT22;24037;49.536;8.500;2023-04-01T19:54:44;10.30;1.00
38241;DHT22;24037;49.536;8.500;2023-04-01T19:59:50;10.20;1.00
38241;DHT22;24037;49.536;8.500;2023-04-01T20:07:53;10.10;1.00
38241;DHT22;24037;49.536;8.500;2023-04-01T20:13:32;10.10;1.00
38241;DHT22;24037;49.536;8.500;2023-04-01T20:16:07;10.10;1.00
38241;DHT22;24037;49.536;8.500;2023-04-01T20:18:58;10.10;1.00
38241;DHT22;24037;49.536;8.500;2023-04-01T20:21:33;10.10;1.00
38241;DHT22;24037;49.536;8.500;2023-04-01T20:26:51;10.10;1.00
38241;DHT22;24037;49.536;8.500;2023-04-01T20:29:35;10.00;1.00
38241;DHT22;24037;49.536;8.500;2023-04-01T20:32:34;10.00;1.00
38241;DHT22;24037;49.536;8.500;2023-04-01T20:37:56;10.00;1.00
38241;DHT22;24037;49.536;8.500;2023-04-01T20:46:53;10.10;1.00
38241;DHT22;24037;49.536;8.500;2023-04-01T20:54:51;10.20;1.00
38241;DHT22;24037;49.536;8.500;2023-04-01T20:57:31;10.20;1.00
38241;DHT22;24037;49.536;8.500;2023-04-01T21:03:18;10.20;1.00
38241;DHT22;24037;49.536;8.500;2023-04-01T21:08:59;10.20;1.00
38241;DHT22;24037;49.536;8.500;2023-04-01T21:11:48;10.20;1.00
38241;DHT22;24037;49.536;8.500;2023-04-01T21:26:23;10.00;1.00
38241;DHT22;24037;49.536;8.500;2023-04-01T21:54:56;9.80;1.00
38241;DHT22;24037;49.536;8.500;2023-04-01T22:11:19;9.90;1.00
38241;DHT22;24037;49.536;8.500;2023-04-01T22:13:59;9.90;1.00
38241;DHT22;24037;49.536;8.500;2023-04-01T22:16:39;9.90;1.00
38241;DHT22;24037;49.536;8.500;2023-04-01T22:27:41;10.00;1.00
38241;DHT22;24037;49.536;8.500;2023-04-01T22:32:57;9.90;1.00
38241;DHT22;24037;49.536;8.500;2023-04-01T22:41:10;9.90;1.00
38241;DHT22;24037;49.536;8.500;2023-04-01T22:43:41;9.90;1.00
38241;DHT22;24037;49.536;8.500;2023-04-01T22:46:40;9.90;1.00
38241;DHT22;24037;49.536;8.500;2023-04-01T22:49:32;9.90;1.00
38241;DHT22;24037;49.536;8.500;2023-04-01T22:52:09;9.90;1.00
38241;DHT22;24037;49.536;8.500;2023-04-01T22:54:45;9.80;1.00
38241;DHT22;24037;49.536;8.500;2023-04-01T23:03:17;9.80;1.00
38241;DHT22;24037;49.536;8.500;2023-04-01T23:05:52;9.80;1.00
38241;DHT22;24037;49.536;8.500;2023-04-01T23:08:40;9.80;1.00
38241;DHT22;24037;49.536;8.500;2023-04-01T23:11:18;9.80;1.00
38241;DHT22;24037;49.536;8.500;2023-04-01T23:13:50;9.80;1.00
38241;DHT22;24037;49.536;8.500;2023-04-01T23:16:28;9.80;1.00
38241;DHT22;24037;49.536;8.500;2023-04-01T23:19:19;9.80;1.00
38241;DHT22;24037;49.536;8.500;2023-04-01T23:21:54;9.80;1.00
38241;DHT22;24037;49.536;8.500;2023-04-01T23:24:33;9.80;1.00
38241;DHT22;24037;49.536;8.500;2023-04-01T23:29:45;9.80;1.00
38241;DHT22;24037;49.536;8.500;2023-04-01T23:32:19;9.70;1.00
38241;DHT22;24037;49.536;8.500;2023-04-01T23:34:50;9.80;1.00
38241;DHT22;24037;49.536;8.500;2023-04-01T23:37:18;9.60;1.00
38241;DHT22;24037;49.536;8.500;2023-04-01T23:39:47;9.60;1.00
38241;DHT22;24037;49.536;8.500;2023-04-01T23:42:19;9.60;1.00
38241;DHT22;24037;49.536;8.500;2023-04-01T23:45:04;9.50;1.00
38241;DHT22;24037;49.536;8.500;2023-04-01T23:47:33;9.40;1.00
38241;DHT22;24037;49.536;8.500;2023-04-01T23:50:32;9.40;1.00
38241;DHT22;24037;49.536;8.500;2023-04-01T23:55:41;9.20;9.30
38241;DHT22;24037;49.536;8.500;2023-04-01T23:58:21;9.20;18.80
